Time;durP1;ratioP1;P1;durP2;ratioP2;P2;SDS_P1;SDS_P2;PMS_P1;PMS_P2;Temp;Humidity;BMP_temperature;BMP_pressure;BME280_temperature;BME280_humidity;BME280_pressure;Samples;Min_cycle;Max_cycle;Signal;HPM_P1;HPM_P2
2024/02/11 00:00:38;;;;;;;14.00;10.70;;;;;;;6.45;100.00;99173.41;6134575;28;20239;-68
2024/02/11 00:04:02;;;;;;;12.93;11.63;;;;;;;6.41;100.00;99166.69;6138983;28;20230;-69
2024/02/11 00:07:25;;;;;;;14.67;11.87;;;;;;;6.39;100.00;99157.97;6138554;28;20243;-68
2024/02/11 00:10:46;;;;;;;14.23;12.13;;;;;;;6.31;100.00;99156.06;6142517;28;20234;-68
2024/02/11 00:14:08;;;;;;;12.10;10.97;;;;;;;6.32;100.00;99152.38;6146144;28;21056;-67
2024/02/11 00:17:30;;;;;;;15.20;13.57;;;;;;;6.35;100.00;99157.44;6134560;28;20325;-69
2024/02/11 00:20:52;;;;;;;15.27;12.13;;;;;;;6.23;100.00;99145.28;6135229;28;20231;-69
2024/02/11 00:24:13;;;;;;;13.90;11.27;;;;;;;6.29;100.00;99141.16;6144526;28;20345;-69
2024/02/11 00:27:34;;;;;;;14.23;12.17;;;;;;;6.37;100.00;99142.06;6136402;28;20238;-67
2024/02/11 00:30:55;;;;;;;15.83;12.60;;;;;;;6.25;100.00;99140.63;6125679;28;20247;-69
2024/02/11 00:34:16;;;;;;;16.87;12.57;;;;;;;6.27;100.00;99143.97;6141939;28;20231;-67
2024/02/11 00:37:40;;;;;;;15.10;13.17;;;;;;;6.38;100.00;99141.06;6143886;28;20242;-67
2024/02/11 00:41:00;;;;;;;16.07;12.33;;;;;;;6.40;100.00;99147.09;6134771;28;20242;-69
2024/02/11 00:44:22;;;;;;;15.90;12.60;;;;;;;6.45;100.00;99152.00;6153621;28;20227;-67
2024/02/11 00:47:42;;;;;;;14.33;11.80;;;;;;;6.42;100.00;99157.69;6147545;28;20593;-68
2024/02/11 00:51:03;;;;;;;13.17;11.40;;;;;;;6.36;100.00;99156.44;6135712;28;20231;-68
2024/02/11 00:54:26;;;;;;;15.87;11.57;;;;;;;6.34;100.00;99152.25;6151647;28;20230;-68
2024/02/11 00:57:47;;;;;;;14.23;12.67;;;;;;;6.42;100.00;99155.81;6145895;28;20233;-68
2024/02/11 01:01:08;;;;;;;12.83;10.83;;;;;;;6.34;100.00;99155.75;6126331;28;20234;-68
2024/02/11 01:04:29;;;;;;;16.30;12.33;;;;;;;6.33;100.00;99150.56;6151072;28;20922;-68
2024/02/11 01:07:51;;;;;;;14.37;12.07;;;;;;;6.33;100.00;99146.06;6121753;28;20230;-68
2024/02/11 01:11:16;;;;;;;13.37;11.97;;;;;;;6.34;100.00;99137.00;6143211;28;20629;-68
2024/02/11 01:14:38;;;;;;;13.73;11.33;;;;;;;6.27;100.00;99143.13;6142118;28;20234;-68
2024/02/11 01:17:58;;;;;;;13.57;11.00;;;;;;;6.25;100.00;99145.97;6134738;28;20227;-69
2024/02/11 01:21:19;;;;;;;20.17;13.57;;;;;;;6.15;100.00;99147.03;6135157;28;20223;-67
2024/02/11 01:24:40;;;;;;;15.07;12.50;;;;;;;6.07;100.00;99155.78;6133814;28;20232;-67
2024/02/11 01:28:02;;;;;;;15.67;13.77;;;;;;;6.29;100.00;99157.19;6137651;28;20231;-67
2024/02/11 01:31:24;;;;;;;13.80;11.70;;;;;;;6.22;100.00;99151.59;6142381;28;20350;-69
2024/02/11 01:34:45;;;;;;;15.03;12.73;;;;;;;6.14;100.00;99162.22;6153719;28;20239;-68
2024/02/11 01:38:06;;;;;;;13.20;11.80;;;;;;;6.21;100.00;99149.94;6142113;28;20239;-68
2024/02/11 01:41:29;;;;;;;14.10;11.13;;;;;;;6.24;100.00;99144.28;6141681;28;20231;-68
2024/02/11 01:44:54;;;;;;;14.07;12.53;;;;;;;6.28;100.00;99132.28;6147215;28;20329;-67
2024/02/11 01:48:17;;;;;;;13.00;11.60;;;;;;;6.20;100.00;99134.88;6151559;28;20766;-68
2024/02/11 01:51:43;;;;;;;14.37;11.67;;;;;;;6.15;100.00;99115.75;6143835;28;20239;-68
2024/02/11 01:55:09;;;;;;;18.10;11.40;;;;;;;6.14;100.00;99124.78;6141979;28;20630;-67
2024/02/11 01:58:31;;;;;;;14.40;11.33;;;;;;;5.99;100.00;99128.09;6151830;28;20231;-68
2024/02/11 02:01:54;;;;;;;13.07;11.60;;;;;;;5.75;100.00;99130.47;6138515;28;20316;-68
2024/02/11 02:05:15;;;;;;;14.13;12.63;;;;;;;6.00;100.00;99132.47;6141157;28;20230;-68
2024/02/11 02:08:36;;;;;;;14.00;12.07;;;;;;;6.03;100.00;99135.69;6109152;28;20238;-67
2024/02/11 02:11:58;;;;;;;12.47;10.50;;;;;;;6.15;100.00;99142.50;6144501;28;20625;-68
2024/02/11 02:15:19;;;;;;;17.10;12.17;;;;;;;6.08;100.00;99141.44;6141101;28;20249;-68
2024/02/11 02:18:45;;;;;;;17.43;13.97;;;;;;;6.15;100.00;99147.84;6131165;28;20239;-68
2024/02/11 02:22:08;;;;;;;13.83;11.63;;;;;;;6.24;100.00;99149.63;6124408;28;20548;-68
2024/02/11 02:25:30;;;;;;;15.70;12.57;;;;;;;6.28;100.00;99151.00;6136539;28;20602;-67
2024/02/11 02:28:51;;;;;;;16.67;13.33;;;;;;;6.24;100.00;99146.94;6145793;28;20242;-68
2024/02/11 02:32:12;;;;;;;14.37;12.87;;;;;;;6.27;100.00;99152.00;6100014;28;20243;-68
2024/02/11 02:35:36;;;;;;;12.00;10.27;;;;;;;6.25;100.00;99142.44;6139626;28;21081;-67
2024/02/11 02:38:58;;;;;;;13.03;11.33;;;;;;;6.18;100.00;99136.00;6150974;28;20239;-68
2024/02/11 02:42:20;;;;;;;13.27;10.83;;;;;;;6.17;100.00;99131.66;6145869;28;20321;-68
2024/02/11 02:45:41;;;;;;;11.47;9.90;;;;;;;6.08;100.00;99129.88;6137706;28;20242;-68
2024/02/11 02:49:02;;;;;;;14.07;10.43;;;;;;;5.99;100.00;99118.25;6147869;28;20530;-68
2024/02/11 02:52:25;;;;;;;10.60;9.47;;;;;;;6.04;100.00;99125.84;6136528;28;20238;-67
2024/02/11 02:55:47;;;;;;;12.40;10.93;;;;;;;5.99;100.00;99128.09;6143818;28;20279;-67
2024/02/11 02:59:08;;;;;;;11.37;8.50;;;;;;;6.05;100.00;99131.03;6150847;28;20235;-67
2024/02/11 03:02:29;;;;;;;12.00;9.20;;;;;;;6.08;100.00;99128.06;6139129;28;20346;-69
2024/02/11 03:05:53;;;;;;;11.20;9.87;;;;;;;6.03;100.00;99108.94;6140116;28;20231;-68
2024/02/11 03:09:15;;;;;;;9.93;8.50;;;;;;;5.95;100.00;99094.63;6150676;28;20231;-68
2024/02/11 03:12:37;;;;;;;10.33;8.03;;;;;;;5.88;100.00;99096.25;6146737;28;21755;-68
2024/02/11 03:15:59;;;;;;;7.80;7.00;;;;;;;5.89;100.00;99093.41;6145150;28;20231;-67
2024/02/11 03:19:20;;;;;;;9.17;8.03;;;;;;;5.75;100.00;99087.69;6147381;28;20235;-68
2024/02/11 03:22:42;;;;;;;9.90;8.43;;;;;;;5.92;100.00;99079.75;6138904;28;20230;-68
2024/02/11 03:26:04;;;;;;;9.47;8.57;;;;;;;5.94;100.00;99083.13;6134170;28;20235;-68
2024/02/11 03:29:26;;;;;;;10.57;9.57;;;;;;;5.83;100.00;99088.63;6149320;28;20326;-68
2024/02/11 03:32:47;;;;;;;11.07;10.03;;;;;;;5.93;100.00;99081.41;6135053;28;20230;-67
2024/02/11 03:36:08;;;;;;;12.43;8.47;;;;;;;5.94;100.00;99091.16;6142546;28;20230;-67
2024/02/11 03:39:28;;;;;;;12.50;10.27;;;;;;;5.83;100.00;99091.31;6144407;28;20235;-67
2024/02/11 03:42:50;;;;;;;11.17;9.00;;;;;;;5.85;100.00;99091.19;6141748;28;20242;-67
2024/02/11 03:46:12;;;;;;;15.40;10.77;;;;;;;5.90;100.00;99091.59;6142792;28;20678;-67
2024/02/11 03:49:33;;;;;;;9.63;8.57;;;;;;;5.98;100.00;99087.16;6143145;28;20239;-68
2024/02/11 03:52:56;;;;;;;10.63;9.53;;;;;;;6.00;100.00;99084.34;6139448;28;20345;-68
2024/02/11 03:56:18;;;;;;;10.20;9.20;;;;;;;5.89;100.00;99096.09;6136012;28;20234;-68
2024/02/11 03:59:39;;;;;;;9.23;8.30;;;;;;;5.88;100.00;99091.75;6153052;28;20231;-67
2024/02/11 04:03:01;;;;;;;8.90;8.00;;;;;;;6.05;100.00;99108.81;6133699;28;20235;-67
2024/02/11 04:06:22;;;;;;;10.30;9.27;;;;;;;6.10;100.00;99111.84;6139941;28;20235;-67
2024/02/11 04:09:43;;;;;;;10.57;9.03;;;;;;;6.12;100.00;99112.53;6146359;28;20326;-68
2024/02/11 04:13:04;;;;;;;11.43;10.10;;;;;;;6.14;100.00;99115.91;6142703;28;22731;-68
2024/02/11 04:16:25;;;;;;;10.77;9.73;;;;;;;6.15;100.00;99105.03;6134997;28;20234;-68
2024/02/11 04:19:47;;;;;;;12.13;9.83;;;;;;;6.10;100.00;99107.34;6139688;28;20297;-68
2024/02/11 04:23:08;;;;;;;9.17;8.30;;;;;;;6.07;100.00;99096.94;6141213;28;20242;-68
2024/02/11 04:26:29;;;;;;;11.50;9.10;;;;;;;6.15;100.00;99089.00;6143504;28;20223;-69
2024/02/11 04:29:50;;;;;;;11.90;9.17;;;;;;;6.22;100.00;99089.22;6142333;28;20258;-68
2024/02/11 04:33:14;;;;;;;10.43;9.23;;;;;;;6.04;100.00;99088.38;6146402;28;20234;-68
2024/02/11 04:36:36;;;;;;;11.73;10.53;;;;;;;5.89;100.00;99093.41;6140056;28;20227;-68
2024/02/11 04:39:57;;;;;;;13.17;10.83;;;;;;;5.89;100.00;99089.88;6146328;28;20227;-67
2024/02/11 04:43:20;;;;;;;10.30;8.53;;;;;;;5.79;100.00;99099.78;6144692;28;20234;-67
2024/02/11 04:46:41;;;;;;;12.33;10.53;;;;;;;5.84;100.00;99089.53;6129420;28;20222;-67
2024/02/11 04:50:03;;;;;;;11.20;9.50;;;;;;;5.97;100.00;99085.47;6144490;28;20357;-68
2024/02/11 04:53:26;;;;;;;12.93;10.40;;;;;;;6.02;100.00;99077.84;6144410;28;20232;-68
2024/02/11 04:56:47;;;;;;;10.77;9.03;;;;;;;6.04;100.00;99069.66;6141207;28;20525;-68
2024/02/11 05:00:23;;;;;;;12.63;10.57;;;;;;;6.01;100.00;99072.63;6145548;28;20246;-67
2024/02/11 05:03:46;;;;;;;15.13;11.87;;;;;;;6.06;100.00;99070.34;6143245;28;20590;-68
2024/02/11 05:07:07;;;;;;;12.07;9.53;;;;;;;6.08;100.00;99073.72;6116994;28;20680;-68
2024/02/11 05:10:33;;;;;;;16.67;12.70;;;;;;;6.03;100.00;99071.50;6141220;28;20243;-67
2024/02/11 05:13:54;;;;;;;13.93;12.47;;;;;;;5.95;100.00;99071.41;6129995;28;20227;-67
2024/02/11 05:17:16;;;;;;;14.70;11.50;;;;;;;6.14;100.00;99070.44;6129003;28;20227;-68
2024/02/11 05:20:37;;;;;;;13.60;12.20;;;;;;;6.09;100.00;99070.06;6137165;28;22491;-67
2024/02/11 05:23:58;;;;;;;24.20;19.53;;;;;;;6.15;100.00;99070.25;6152164;28;20230;-68
2024/02/11 05:27:21;;;;;;;14.53;12.00;;;;;;;6.16;100.00;99068.44;6144806;28;20232;-68
2024/02/11 05:30:43;;;;;;;11.03;9.83;;;;;;;6.16;100.00;99073.78;6147261;28;20226;-68
2024/02/11 05:34:05;;;;;;;16.70;11.40;;;;;;;6.25;100.00;99071.06;6149978;28;20227;-68
2024/02/11 05:37:26;;;;;;;15.93;13.63;;;;;;;6.08;100.00;99076.38;6142010;28;20231;-68
2024/02/11 05:40:50;;;;;;;15.73;13.83;;;;;;;6.01;100.00;99075.31;6146244;28;20230;-68
2024/02/11 05:44:13;;;;;;;12.30;11.20;;;;;;;6.06;100.00;99078.38;6150975;28;23626;-68
2024/02/11 05:47:33;;;;;;;19.80;11.97;;;;;;;5.89;100.00;99085.38;6141576;28;20230;-67
2024/02/11 05:50:54;;;;;;;13.53;11.70;;;;;;;6.00;100.00;99085.19;6144393;28;20325;-68
2024/02/11 05:54:16;;;;;;;12.23;10.87;;;;;;;6.10;100.00;99083.28;6148518;28;20349;-68
2024/02/11 05:57:39;;;;;;;12.53;11.23;;;;;;;6.03;100.00;99084.88;6150979;28;20629;-68
2024/02/11 06:01:04;;;;;;;14.30;11.90;;;;;;;6.03;100.00;99078.69;6134796;28;20235;-68
2024/02/11 06:04:25;;;;;;;14.00;11.47;;;;;;;6.01;100.00;99080.66;6146526;28;20234;-68
2024/02/11 06:07:49;;;;;;;13.13;11.50;;;;;;;6.01;100.00;99088.69;6137963;28;20317;-68
2024/02/11 06:11:11;;;;;;;11.67;10.47;;;;;;;5.97;100.00;99085.47;6146676;28;20707;-67
2024/02/11 06:14:33;;;;;;;16.17;11.47;;;;;;;6.03;100.00;99092.06;6146776;28;20222;-68
2024/02/11 06:17:58;;;;;;;13.53;12.23;;;;;;;6.04;100.00;99091.91;6144443;28;20573;-68
2024/02/11 06:21:19;;;;;;;12.43;11.17;;;;;;;6.08;100.00;99097.78;6111988;28;20234;-67
2024/02/11 06:24:40;;;;;;;12.53;11.23;;;;;;;5.97;100.00;99100.66;6151021;28;20593;-68
2024/02/11 06:28:01;;;;;;;12.50;11.27;;;;;;;5.90;100.00;99108.47;6143248;28;20234;-68
2024/02/11 06:31:22;;;;;;;13.93;11.73;;;;;;;6.04;100.00;99113.31;6143940;28;20235;-68
2024/02/11 06:34:46;;;;;;;15.43;11.67;;;;;;;6.01;100.00;99118.94;6147383;28;20239;-67
2024/02/11 06:38:07;;;;;;;13.67;11.20;;;;;;;6.04;100.00;99120.47;6131623;28;21855;-67
2024/02/11 06:41:31;;;;;;;13.47;12.07;;;;;;;5.95;100.00;99110.69;6139839;28;20227;-67
2024/02/11 06:44:53;;;;;;;13.83;10.97;;;;;;;5.87;100.00;99115.94;6144458;28;20226;-68
2024/02/11 06:48:17;;;;;;;12.60;10.77;;;;;;;5.93;100.00;99121.53;6145868;28;20330;-68
2024/02/11 06:51:40;;;;;;;12.17;10.33;;;;;;;6.00;100.00;99130.66;6141353;28;20235;-68
2024/02/11 06:55:01;;;;;;;11.47;9.63;;;;;;;6.02;100.00;99130.50;6147401;28;20226;-68
2024/02/11 06:58:22;;;;;;;11.43;10.23;;;;;;;5.98;100.00;99145.16;6144135;28;20245;-67
2024/02/11 07:01:43;;;;;;;11.07;10.00;;;;;;;6.03;100.00;99143.69;6131901;28;20231;-67
2024/02/11 07:05:05;;;;;;;10.13;8.93;;;;;;;6.19;100.00;99153.75;6141870;28;20250;-67
2024/02/11 07:08:28;;;;;;;13.10;11.10;;;;;;;6.07;100.00;99158.47;6124744;28;20231;-68
2024/02/11 07:11:49;;;;;;;11.87;9.80;;;;;;;6.10;100.00;99168.88;6138921;28;20230;-67
2024/02/11 07:15:11;;;;;;;12.53;10.80;;;;;;;6.13;100.00;99167.75;6148668;28;20239;-67
2024/02/11 07:18:33;;;;;;;11.50;10.13;;;;;;;6.19;100.00;99176.00;6143143;28;20643;-68
2024/02/11 07:21:57;;;;;;;10.43;9.33;;;;;;;6.11;100.00;99180.41;6142848;28;20227;-68
2024/02/11 07:25:20;;;;;;;12.03;10.53;;;;;;;6.05;100.00;99186.38;6140585;28;20239;-67
2024/02/11 07:28:42;;;;;;;12.63;10.33;;;;;;;6.08;100.00;99189.56;6143777;28;20518;-67
2024/02/11 07:32:06;;;;;;;12.73;10.23;;;;;;;6.07;100.00;99198.59;6120830;28;20222;-67
2024/02/11 07:35:26;;;;;;;11.67;10.07;;;;;;;6.16;100.00;99205.72;6142698;28;20241;-68
2024/02/11 07:38:51;;;;;;;12.37;10.47;;;;;;;6.17;100.00;99196.72;6123265;28;20971;-68
2024/02/11 07:42:13;;;;;;;11.97;10.47;;;;;;;6.16;100.00;99197.69;6147698;28;20849;-68
2024/02/11 07:45:38;;;;;;;12.53;10.50;;;;;;;6.11;100.00;99199.16;6135014;28;20829;-68
2024/02/11 07:49:03;;;;;;;12.10;10.83;;;;;;;6.17;100.00;99199.41;6144399;28;20685;-67
2024/02/11 07:52:24;;;;;;;12.60;9.77;;;;;;;6.17;100.00;99199.41;6140997;28;20246;-67
2024/02/11 07:55:45;;;;;;;11.50;10.20;;;;;;;5.99;100.00;99195.81;6141654;28;20226;-67
2024/02/11 07:59:11;;;;;;;10.50;8.90;;;;;;;6.03;100.00;99196.38;6148537;28;21146;-67
2024/02/11 08:02:33;;;;;;;11.50;10.40;;;;;;;6.13;100.00;99191.81;6128792;28;20597;-67
2024/02/11 08:05:54;;;;;;;12.03;10.83;;;;;;;6.08;100.00;99186.91;6141745;28;20286;-67
2024/02/11 08:09:15;;;;;;;13.13;11.80;;;;;;;6.18;100.00;99195.72;6142219;28;20235;-67
2024/02/11 08:12:36;;;;;;;11.50;9.97;;;;;;;6.10;100.00;99192.94;6141197;28;20251;-68
2024/02/11 08:15:58;;;;;;;12.23;10.97;;;;;;;6.19;100.00;99200.09;6136758;28;20318;-68
2024/02/11 08:19:19;;;;;;;12.63;11.43;;;;;;;6.00;100.00;99194.84;6144007;28;20337;-68
2024/02/11 08:22:40;;;;;;;12.73;10.37;;;;;;;5.99;100.00;99195.81;6127806;28;20898;-68
2024/02/11 08:26:02;;;;;;;13.00;9.97;;;;;;;5.97;100.00;99196.94;6139727;28;20289;-68
2024/02/11 08:29:23;;;;;;;12.37;11.17;;;;;;;5.95;100.00;99199.78;6132986;28;20644;-66
2024/02/11 08:32:45;;;;;;;13.23;11.23;;;;;;;6.06;100.00;99199.59;6132081;28;20561;-68
2024/02/11 08:36:06;;;;;;;12.47;10.13;;;;;;;6.12;100.00;99200.81;6142182;28;20230;-68
2024/02/11 08:39:27;;;;;;;12.40;10.90;;;;;;;6.24;100.00;99204.97;6148484;28;20258;-67
2024/02/11 08:42:50;;;;;;;15.63;11.27;;;;;;;6.07;100.00;99213.81;6128844;28;20258;-69
2024/02/11 08:46:11;;;;;;;14.20;11.70;;;;;;;6.09;100.00;99218.00;6137856;28;20235;-67
2024/02/11 08:49:34;;;;;;;13.30;11.90;;;;;;;6.10;100.00;99213.50;6136014;28;20238;-71
2024/02/11 08:52:56;;;;;;;11.53;10.33;;;;;;;6.20;100.00;99216.94;6123887;28;20239;-67
2024/02/11 08:56:17;;;;;;;13.03;11.77;;;;;;;6.18;100.00;99210.91;6123281;28;20243;-70
2024/02/11 08:59:38;;;;;;;12.50;11.20;;;;;;;6.19;100.00;99216.13;6143567;28;20242;-68
2024/02/11 09:03:00;;;;;;;16.00;12.27;;;;;;;6.19;100.00;99216.13;6137224;28;20560;-67
2024/02/11 09:06:22;;;;;;;16.30;13.03;;;;;;;6.04;100.00;99209.59;6130866;28;20613;-67
2024/02/11 09:09:43;;;;;;;13.67;12.27;;;;;;;6.16;100.00;99220.91;6136622;28;20656;-68
2024/02/11 09:13:05;;;;;;;13.37;11.80;;;;;;;6.01;100.00;99220.56;6143320;28;20590;-68
2024/02/11 09:16:26;;;;;;;15.57;12.23;;;;;;;6.29;100.00;99211.56;6140757;28;20276;-68
2024/02/11 09:19:47;;;;;;;17.07;13.53;;;;;;;6.26;100.00;99214.53;6147360;28;20617;-67
2024/02/11 09:23:10;;;;;;;15.40;12.43;;;;;;;6.39;100.00;99220.38;6149723;28;20238;-68
2024/02/11 09:26:31;;;;;;;15.30;12.47;;;;;;;6.39;100.00;99206.13;6144576;28;20553;-69
2024/02/11 09:29:52;;;;;;;15.23;13.00;;;;;;;6.13;100.00;99207.88;6144031;28;20242;-66
2024/02/11 09:33:13;;;;;;;15.00;13.40;;;;;;;6.21;100.00;99208.81;6128938;28;20742;-67
2024/02/11 09:36:34;;;;;;;14.17;12.27;;;;;;;6.37;100.00;99206.31;6134834;28;20648;-67
2024/02/11 09:39:56;;;;;;;16.00;13.73;;;;;;;6.31;100.00;99212.25;6140659;28;20230;-67
2024/02/11 09:43:21;;;;;;;14.73;11.33;;;;;;;6.50;100.00;99211.28;6144095;28;20234;-68
2024/02/11 09:46:43;;;;;;;17.63;14.00;;;;;;;6.42;100.00;99216.56;6129664;28;20250;-68
2024/02/11 09:50:09;;;;;;;15.17;13.60;;;;;;;6.38;100.00;99223.22;6138925;28;20227;-69
2024/02/11 09:53:34;;;;;;;17.90;15.60;;;;;;;6.41;100.00;99230.91;6148417;28;20235;-67
2024/02/11 09:56:56;;;;;;;18.63;15.00;;;;;;;6.44;100.00;99231.47;6132999;28;20227;-67
2024/02/11 10:00:19;;;;;;;17.73;15.37;;;;;;;6.47;100.00;99239.19;6146083;28;20234;-69
2024/02/11 10:03:41;;;;;;;17.83;14.37;;;;;;;6.53;100.00;99242.28;6142659;28;20247;-67
2024/02/11 10:07:06;;;;;;;21.63;15.40;;;;;;;6.51;100.00;99247.75;6140933;28;20583;-67
2024/02/11 10:10:27;;;;;;;17.60;15.70;;;;;;;6.50;100.00;99247.91;6138218;28;20227;-68
2024/02/11 10:13:50;;;;;;;17.40;13.70;;;;;;;6.38;100.00;99248.09;6147649;28;20250;-69
2024/02/11 10:17:11;;;;;;;19.43;15.73;;;;;;;6.48;100.00;99245.41;6123466;28;20235;-69
2024/02/11 10:20:36;;;;;;;16.53;14.30;;;;;;;6.37;100.00;99240.25;6137236;28;20231;-70
2024/02/11 10:23:57;;;;;;;22.00;16.77;;;;;;;6.39;100.00;99247.13;6150064;28;20226;-68
2024/02/11 10:27:19;;;;;;;20.57;15.90;;;;;;;6.42;100.00;99244.13;6142869;28;20617;-67
2024/02/11 10:30:42;;;;;;;22.17;15.57;;;;;;;6.53;100.00;99240.41;6123233;28;20243;-67
2024/02/11 10:34:03;;;;;;;21.57;17.87;;;;;;;6.57;100.00;99244.47;6144376;28;20321;-67
2024/02/11 10:37:25;;;;;;;19.07;16.90;;;;;;;6.33;100.00;99247.72;6142578;28;20265;-70
2024/02/11 10:40:48;;;;;;;18.77;14.63;;;;;;;6.47;100.00;99252.56;6142068;28;20321;-67
2024/02/11 10:44:11;;;;;;;20.13;15.43;;;;;;;6.38;100.00;99252.66;6151402;28;20236;-68
2024/02/11 10:47:33;;;;;;;18.00;15.73;;;;;;;6.34;100.00;99257.44;6134698;28;20726;-68
2024/02/11 10:51:07;;;;;;;17.37;14.97;;;;;;;6.41;100.00;99255.00;6134863;28;20227;-67
2024/02/11 10:54:35;;;;;;;20.60;15.87;;;;;;;6.43;100.00;99263.72;6148420;28;20794;-68
2024/02/11 10:58:00;;;;;;;19.10;16.90;;;;;;;6.56;100.00;99258.00;6138283;28;20697;-67
2024/02/11 11:01:22;;;;;;;17.57;14.40;;;;;;;6.45;100.00;99257.22;6142353;28;20360;-67
2024/02/11 11:04:46;;;;;;;17.73;15.90;;;;;;;6.47;100.00;99264.28;6148839;28;20226;-67
2024/02/11 11:08:09;;;;;;;17.20;15.43;;;;;;;6.65;100.00;99259.78;6148199;28;20236;-68
2024/02/11 11:11:30;;;;;;;20.67;18.37;;;;;;;6.60;100.00;99262.06;6144360;28;20559;-68
2024/02/11 11:14:56;;;;;;;19.40;15.00;;;;;;;6.65;100.00;99263.31;6141276;28;20242;-67
2024/02/11 11:18:22;;;;;;;24.23;18.03;;;;;;;6.57;100.00;99255.19;6146217;28;20227;-67
2024/02/11 11:21:52;;;;;;;21.07;16.20;;;;;;;6.56;100.00;99261.53;6146339;28;20230;-67
2024/02/11 11:25:16;;;;;;;18.00;14.80;;;;;;;6.60;100.00;99262.06;6143398;28;20241;-69
2024/02/11 11:28:40;;;;;;;16.83;15.13;;;;;;;6.54;100.00;99252.81;6144543;28;20226;-69
2024/02/11 11:32:08;;;;;;;20.67;16.63;;;;;;;6.64;100.00;99253.59;6141725;28;20234;-68
2024/02/11 11:35:31;;;;;;;19.40;16.13;;;;;;;6.64;100.00;99250.06;6141378;28;20246;-66
2024/02/11 11:38:53;;;;;;;17.00;14.07;;;;;;;6.64;100.00;99242.03;6128739;28;20351;-67
2024/02/11 11:42:16;;;;;;;22.60;17.20;;;;;;;6.65;100.00;99239.22;6133766;28;20235;-69
2024/02/11 11:45:38;;;;;;;21.67;16.43;;;;;;;6.82;100.00;99230.34;6137712;28;20246;-68
2024/02/11 11:48:59;;;;;;;20.87;17.30;;;;;;;6.81;100.00;99230.50;6140991;28;20234;-68
2024/02/11 11:52:20;;;;;;;18.00;15.23;;;;;;;6.86;100.00;99229.03;6133428;28;20254;-67
2024/02/11 11:55:50;;;;;;;23.07;19.70;;;;;;;6.89;100.00;99234.09;6134126;28;20239;-68
2024/02/11 11:59:12;;;;;;;23.97;21.43;;;;;;;6.89;100.00;99234.09;6146356;28;20230;-67
2024/02/11 12:02:35;;;;;;;21.60;17.90;;;;;;;6.82;100.00;99232.19;6131885;28;20254;-68
2024/02/11 12:05:56;;;;;;;20.90;18.63;;;;;;;6.61;100.00;99245.03;6132211;28;20321;-68
2024/02/11 12:09:19;;;;;;;27.73;18.57;;;;;;;6.58;100.00;99248.84;6131222;28;20239;-67
2024/02/11 12:12:41;;;;;;;22.03;17.27;;;;;;;6.63;100.00;99257.28;6135074;28;20915;-67
2024/02/11 12:16:04;;;;;;;23.37;19.63;;;;;;;6.63;100.00;99253.75;6136038;28;20507;-67
2024/02/11 12:19:25;;;;;;;28.47;19.70;;;;;;;6.73;100.00;99249.16;6147286;28;20304;-69
2024/02/11 12:22:46;;;;;;;25.87;21.27;;;;;;;6.77;100.00;99251.41;6138116;28;20226;-68
2024/02/11 12:26:07;;;;;;;22.97;18.83;;;;;;;6.76;100.00;99248.88;6144114;28;20258;-69
2024/02/11 12:29:29;;;;;;;21.07;17.53;;;;;;;6.71;100.00;99253.84;6147533;28;20234;-71
2024/02/11 12:32:52;;;;;;;21.27;18.43;;;;;;;6.79;100.00;99248.56;6130769;28;20234;-70
2024/02/11 12:36:14;;;;;;;25.17;19.23;;;;;;;6.72;100.00;99242.13;6090494;28;20243;-69
2024/02/11 12:39:36;;;;;;;20.07;15.70;;;;;;;6.72;100.00;99234.94;6144391;28;20235;-69
2024/02/11 12:42:58;;;;;;;24.67;18.23;;;;;;;6.65;100.00;99244.59;6137437;28;20251;-67
2024/02/11 12:46:21;;;;;;;21.13;17.10;;;;;;;6.67;100.00;99247.94;6139293;28;20266;-68
2024/02/11 12:49:43;;;;;;;26.40;20.07;;;;;;;6.75;100.00;99236.47;6130971;28;20239;-68
2024/02/11 12:53:04;;;;;;;21.67;18.17;;;;;;;6.81;100.00;99234.03;6114502;28;20276;-68
2024/02/11 12:56:26;;;;;;;17.80;14.93;;;;;;;6.83;100.00;99226.69;6138961;28;20349;-72
2024/02/11 12:59:47;;;;;;;20.17;15.50;;;;;;;6.80;100.00;99228.81;6142874;28;20321;-68
2024/02/11 13:03:09;;;;;;;17.40;15.60;;;;;;;6.83;100.00;99228.50;6130251;28;20306;-68
2024/02/11 13:06:32;;;;;;;19.27;16.43;;;;;;;6.91;100.00;99226.75;6133515;28;20226;-68
2024/02/11 13:09:54;;;;;;;18.50;15.57;;;;;;;6.74;100.00;99232.94;6145246;28;20242;-68
2024/02/11 13:13:15;;;;;;;22.23;18.07;;;;;;;6.79;100.00;99233.34;6145946;28;20239;-67
2024/02/11 13:16:36;;;;;;;20.33;18.10;;;;;;;6.69;100.00;99232.56;6126447;28;20232;-68
2024/02/11 13:19:57;;;;;;;20.70;16.73;;;;;;;6.69;100.00;99229.03;6125836;28;20533;-67
2024/02/11 13:23:18;;;;;;;21.10;17.53;;;;;;;6.83;100.00;99233.88;6142080;28;20239;-68
2024/02/11 13:26:39;;;;;;;17.07;15.47;;;;;;;6.74;100.00;99232.13;6128845;28;20325;-68
2024/02/11 13:30:01;;;;;;;19.83;15.03;;;;;;;6.85;100.00;99234.56;6130064;28;20235;-68
2024/02/11 13:33:23;;;;;;;20.00;16.63;;;;;;;6.93;100.00;99227.44;6134110;28;20509;-67
2024/02/11 13:36:45;;;;;;;20.53;16.57;;;;;;;6.87;100.00;99235.25;6139761;28;20680;-68
2024/02/11 13:40:11;;;;;;;23.13;18.63;;;;;;;6.87;100.00;99235.25;6138508;28;20737;-66
2024/02/11 13:43:32;;;;;;;18.77;16.73;;;;;;;6.78;100.00;99225.47;6143596;28;20226;-71
2024/02/11 13:46:53;;;;;;;17.03;13.47;;;;;;;6.69;100.00;99213.84;6111751;28;20226;-68
2024/02/11 13:50:14;;;;;;;22.13;13.50;;;;;;;6.77;100.00;99218.41;6135280;28;21139;-69
2024/02/11 13:53:38;;;;;;;18.20;15.13;;;;;;;6.74;100.00;99224.09;6149831;28;20253;-67
2024/02/11 13:57:00;;;;;;;16.30;13.80;;;;;;;6.82;100.00;99224.97;6140117;28;20344;-67
2024/02/11 14:00:22;;;;;;;14.37;12.87;;;;;;;6.75;100.00;99226.59;6134377;28;20250;-66
2024/02/11 14:03:43;;;;;;;18.27;16.37;;;;;;;6.76;100.00;99222.91;6118234;28;20239;-67
2024/02/11 14:07:05;;;;;;;29.50;23.63;;;;;;;6.78;100.00;99220.09;6143213;28;20247;-68
2024/02/11 14:10:27;;;;;;;23.30;20.93;;;;;;;6.76;100.00;99227.44;6122562;28;20236;-68
2024/02/11 14:13:48;;;;;;;21.20;16.20;;;;;;;6.85;100.00;99223.84;6154702;28;20329;-69
2024/02/11 14:17:12;;;;;;;18.90;14.73;;;;;;;6.82;100.00;99233.00;6113533;28;20231;-67
2024/02/11 14:20:37;;;;;;;15.47;13.87;;;;;;;6.74;100.00;99238.28;6129432;28;21982;-69
2024/02/11 14:23:59;;;;;;;16.47;13.73;;;;;;;6.65;100.00;99233.88;6143690;28;20235;-68
2024/02/11 14:27:22;;;;;;;16.90;14.37;;;;;;;6.67;100.00;99239.91;6134501;28;20251;-67
2024/02/11 14:30:43;;;;;;;18.70;14.83;;;;;;;6.75;100.00;99244.50;6130311;28;20231;-68
2024/02/11 14:34:04;;;;;;;16.13;12.27;;;;;;;6.65;100.00;99249.94;6120311;28;20232;-69
2024/02/11 14:37:25;;;;;;;21.63;16.70;;;;;;;6.49;100.00;99252.41;6141557;28;20243;-67
2024/02/11 14:40:49;;;;;;;28.50;22.33;;;;;;;6.67;100.00;99247.94;6132075;28;20489;-67
2024/02/11 14:44:12;;;;;;;22.07;17.73;;;;;;;6.64;100.00;99244.72;6155268;28;20609;-69
2024/02/11 14:47:34;;;;;;;25.33;19.33;;;;;;;6.67;100.00;99247.09;6138270;28;20230;-67
2024/02/11 14:51:10;;;;;;;23.87;19.03;;;;;;;6.77;100.00;99238.00;6083762;28;20235;-68
2024/02/11 14:54:35;;;;;;;18.47;14.87;;;;;;;6.81;100.00;99244.75;6100567;28;20617;-68
2024/02/11 14:57:55;;;;;;;18.20;15.40;;;;;;;6.84;100.00;99249.78;6060649;28;20236;-68
2024/02/11 15:01:21;;;;;;;24.97;19.67;;;;;;;6.86;100.00;99239.75;6103295;28;20313;-68
2024/02/11 15:04:49;;;;;;;28.83;24.33;;;;;;;6.88;100.00;99247.66;6121471;28;20257;-67
2024/02/11 15:08:15;;;;;;;14.30;12.83;;;;;;;6.75;100.00;99250.69;6107603;28;20308;-68
2024/02/11 15:11:38;;;;;;;19.03;16.83;;;;;;;6.70;100.00;99252.13;6127443;28;20235;-68
2024/02/11 15:15:02;;;;;;;18.40;15.40;;;;;;;6.80;100.00;99252.94;6102985;28;20613;-68
2024/02/11 15:18:28;;;;;;;18.73;15.03;;;;;;;6.76;100.00;99252.38;6122625;28;20273;-67
2024/02/11 15:21:49;;;;;;;17.90;15.93;;;;;;;6.69;100.00;99258.50;6128781;28;20231;-66
2024/02/11 15:25:10;;;;;;;18.00;15.77;;;;;;;6.60;100.00;99267.44;6128255;28;20231;-67
2024/02/11 15:28:32;;;;;;;19.57;16.23;;;;;;;6.31;100.00;99272.94;6136665;28;20350;-68
2024/02/11 15:31:53;;;;;;;20.13;15.73;;;;;;;6.35;100.00;99280.53;6139274;28;20246;-69